Time;durP1;ratioP1;P1;durP2;ratioP2;P2;SDS_P1;SDS_P2;PMS_P1;PMS_P2;Temp;Humidity;BMP_temperature;BMP_pressure;BME280_temperature;BME280_humidity;BME280_pressure;Samples;Min_cycle;Max_cycle;Signal;HPM_P1;HPM_P2
2022/03/13 00:02:55;;;;;;;17.95;8.00;;;8.70;1.00;;;;;;10390434;28;84306;-51
2022/03/13 00:07:56;;;;;;;17.55;6.70;;;8.60;1.00;;;;;;10403165;28;84188;-49
2022/03/13 00:12:57;;;;;;;16.77;7.72;;;8.50;1.00;;;;;;10374191;28;84998;-46
2022/03/13 00:17:59;;;;;;;17.65;8.38;;;8.60;1.00;;;;;;10372144;28;85081;-47
2022/03/13 00:22:59;;;;;;;17.02;7.35;;;8.50;1.00;;;;;;10373643;28;84005;-50
2022/03/13 00:28:00;;;;;;;16.42;8.40;;;8.50;1.00;;;;;;10371909;28;84057;-48
2022/03/13 00:33:01;;;;;;;15.15;7.95;;;8.40;1.00;;;;;;10373551;28;84317;-46
2022/03/13 00:38:02;;;;;;;17.27;7.03;;;8.40;1.00;;;;;;10371641;28;84213;-49
2022/03/13 00:43:04;;;;;;;17.42;7.47;;;8.30;1.00;;;;;;10386134;28;84818;-49
2022/03/13 00:48:05;;;;;;;13.52;6.68;;;8.20;1.00;;;;;;10369289;28;85694;-46
2022/03/13 00:53:06;;;;;;;12.15;6.80;;;8.10;1.00;;;;;;10396358;28;84924;-51
2022/03/13 00:58:06;;;;;;;12.23;6.57;;;8.00;1.00;;;;;;10377395;28;85308;-49
2022/03/13 01:03:17;;;;;;;13.73;6.10;;;7.90;1.00;;;;;;10380137;28;84857;-47
2022/03/13 01:08:19;;;;;;;11.32;6.15;;;7.80;1.00;;;;;;10395105;28;85010;-48
2022/03/13 01:13:20;;;;;;;12.13;6.00;;;7.80;1.00;;;;;;10388772;28;84905;-48
2022/03/13 01:18:21;;;;;;;13.13;6.18;;;7.80;1.00;;;;;;10397947;28;84369;-46
2022/03/13 01:23:23;;;;;;;15.63;6.43;;;7.70;1.00;;;;;;10392657;28;84205;-49
2022/03/13 01:28:23;;;;;;;14.98;7.68;;;7.80;1.00;;;;;;10387289;28;84976;-46
2022/03/13 01:33:24;;;;;;;11.75;6.43;;;7.70;1.00;;;;;;10391195;28;84907;-49
2022/03/13 01:38:32;;;;;;;11.02;6.20;;;7.70;1.00;;;;;;10402367;28;85380;-48
2022/03/13 01:43:33;;;;;;;11.88;6.07;;;7.60;1.00;;;;;;10397439;28;84082;-48
2022/03/13 01:48:55;;;;;;;11.73;5.57;;;7.50;1.00;;;;;;10369334;28;84111;-48
2022/03/13 01:53:58;;;;;;;12.98;6.22;;;7.50;1.00;;;;;;10388066;28;85048;-48
2022/03/13 01:58:59;;;;;;;11.70;5.45;;;7.50;1.00;;;;;;10410762;28;84282;-48
2022/03/13 02:04:00;;;;;;;11.75;6.15;;;7.50;1.00;;;;;;10411585;28;84109;-51
2022/03/13 02:09:05;;;;;;;12.63;6.63;;;7.40;1.00;;;;;;10409916;28;84804;-51
2022/03/13 02:14:08;;;;;;;14.00;6.35;;;7.40;1.00;;;;;;10388271;28;84881;-46
2022/03/13 02:19:09;;;;;;;12.93;6.55;;;7.30;1.00;;;;;;10368374;28;85103;-46
2022/03/13 02:24:15;;;;;;;15.45;6.57;;;7.20;1.00;;;;;;10378307;28;84064;-49
2022/03/13 02:29:15;;;;;;;15.93;7.22;;;7.10;1.00;;;;;;10382746;28;85456;-48
2022/03/13 02:34:16;;;;;;;12.77;6.15;;;7.10;1.00;;;;;;10383592;28;84764;-46
2022/03/13 02:39:17;;;;;;;13.05;6.80;;;7.00;1.00;;;;;;10389333;28;84182;-47
2022/03/13 02:44:18;;;;;;;14.48;6.30;;;6.90;1.00;;;;;;10384819;28;84465;-50
2022/03/13 02:49:21;;;;;;;17.58;5.85;;;6.90;1.00;;;;;;10392070;28;84286;-45
2022/03/13 02:54:22;;;;;;;13.90;6.55;;;6.90;1.00;;;;;;10391880;28;84478;-46
2022/03/13 02:59:23;;;;;;;11.70;6.32;;;6.90;1.00;;;;;;10384415;28;85061;-46
2022/03/13 03:04:24;;;;;;;12.68;6.43;;;6.80;1.00;;;;;;10388010;28;84783;-48
2022/03/13 03:09:26;;;;;;;15.20;7.05;;;6.70;1.00;;;;;;10387536;28;85225;-49
2022/03/13 03:14:29;;;;;;;13.13;6.30;;;6.70;1.00;;;;;;10395627;28;85028;-46
2022/03/13 03:19:30;;;;;;;12.15;6.50;;;6.50;1.00;;;;;;10405471;28;84017;-51
2022/03/13 03:24:30;;;;;;;12.88;6.40;;;6.50;1.00;;;;;;10408395;28;84864;-44
2022/03/13 03:29:31;;;;;;;11.00;5.80;;;6.30;1.00;;;;;;10389344;28;87074;-48
2022/03/13 03:34:32;;;;;;;16.13;6.97;;;6.10;1.00;;;;;;10405232;28;84943;-49
2022/03/13 03:39:33;;;;;;;10.52;6.45;;;6.10;1.00;;;;;;10398726;28;84109;-49
2022/03/13 03:44:34;;;;;;;12.60;6.13;;;6.10;1.00;;;;;;10407681;28;84154;-46
2022/03/13 03:49:34;;;;;;;12.35;6.35;;;6.00;1.00;;;;;;10391363;28;85930;-44
2022/03/13 03:54:35;;;;;;;11.98;5.47;;;5.90;1.00;;;;;;10406907;22;85398;-50
2022/03/13 03:59:39;;;;;;;10.68;5.55;;;5.90;1.00;;;;;;10469815;27;84247;-49
2022/03/13 04:04:41;;;;;;;12.88;6.05;;;5.90;1.00;;;;;;10474050;27;84099;-47
2022/03/13 04:09:41;;;;;;;11.65;6.15;;;5.80;1.00;;;;;;10469992;27;84415;-47
2022/03/13 04:14:42;;;;;;;8.63;4.82;;;5.80;1.00;;;;;;10465580;27;85154;-46
2022/03/13 04:19:43;;;;;;;11.77;4.80;;;5.80;1.00;;;;;;10467399;27;85199;-43
2022/03/13 04:24:43;;;;;;;13.85;5.53;;;5.80;1.00;;;;;;10442977;28;84253;-42
2022/03/13 04:29:44;;;;;;;9.25;5.40;;;5.80;1.00;;;;;;10448991;27;85985;-42
2022/03/13 04:34:44;;;;;;;11.48;5.68;;;5.70;1.00;;;;;;10421937;27;86902;-47
2022/03/13 04:39:50;;;;;;;10.27;5.07;;;5.80;1.00;;;;;;10413255;28;84851;-49
2022/03/13 04:44:51;;;;;;;9.75;5.05;;;5.60;1.00;;;;;;10419473;28;84127;-49
2022/03/13 04:49:52;;;;;;;11.60;5.30;;;5.70;1.00;;;;;;10418748;28;84141;-48
2022/03/13 04:54:53;;;;;;;11.35;4.75;;;5.60;1.00;;;;;;10419216;27;84095;-48
2022/03/13 04:59:54;;;;;;;9.13;4.30;;;5.60;1.00;;;;;;10478817;27;84189;-51
2022/03/13 05:04:54;;;;;;;12.75;4.80;;;5.60;1.00;;;;;;10424419;28;86883;-49
2022/03/13 05:09:55;;;;;;;9.82;4.57;;;5.60;1.00;;;;;;10437034;28;86573;-48
2022/03/13 05:14:56;;;;;;;9.70;4.97;;;5.60;1.00;;;;;;10456093;28;84109;-49
2022/03/13 05:19:57;;;;;;;9.63;4.80;;;5.50;99.90;;;;;;10449627;28;84192;-48
2022/03/13 05:24:57;;;;;;;9.45;4.85;;;5.50;1.00;;;;;;10455438;28;84718;-48
2022/03/13 05:30:01;;;;;;;8.65;4.82;;;5.50;1.00;;;;;;10454613;28;84951;-47
2022/03/13 05:35:05;;;;;;;9.65;4.97;;;5.50;1.00;;;;;;10441426;27;84249;-49
2022/03/13 05:40:06;;;;;;;10.35;5.22;;;5.50;1.00;;;;;;10436006;28;84905;-48
2022/03/13 05:45:10;;;;;;;10.90;4.65;;;5.40;1.00;;;;;;10455428;28;83982;-47
2022/03/13 05:50:11;;;;;;;11.48;5.55;;;5.50;1.00;;;;;;10453073;27;84052;-48
2022/03/13 05:55:13;;;;;;;9.38;4.80;;;5.50;1.00;;;;;;10412313;28;85393;-48
2022/03/13 06:00:15;;;;;;;11.55;5.30;;;5.50;99.90;;;;;;10393601;28;85207;-47
2022/03/13 06:05:18;;;;;;;9.75;4.90;;;5.40;99.90;;;;;;10481529;27;84888;-47
2022/03/13 06:10:18;;;;;;;11.45;5.25;;;5.40;99.90;;;;;;10460175;27;84154;-46
2022/03/13 06:15:19;;;;;;;10.07;4.93;;;5.40;99.90;;;;;;10451894;27;84933;-47
2022/03/13 06:20:20;;;;;;;12.98;5.18;;;5.40;99.90;;;;;;10453343;27;84248;-46
2022/03/13 06:25:20;;;;;;;9.77;4.65;;;5.40;99.90;;;;;;10451363;27;84362;-49
2022/03/13 06:30:21;;;;;;;11.32;4.75;;;5.40;99.90;;;;;;10430669;28;84173;-50
2022/03/13 06:35:23;;;;;;;12.18;5.00;;;5.50;99.90;;;;;;10432047;28;84361;-47
2022/03/13 06:40:25;;;;;;;12.35;5.00;;;5.60;99.90;;;;;;10435290;28;85086;-50
2022/03/13 06:45:30;;;;;;;11.20;4.82;;;5.70;99.90;;;;;;10432552;28;85081;-52
2022/03/13 06:50:30;;;;;;;10.65;4.78;;;5.80;99.90;;;;;;10422413;28;84867;-48
2022/03/13 06:55:31;;;;;;;7.88;4.32;;;5.90;99.90;;;;;;10426770;28;84248;-46
2022/03/13 07:00:32;;;;;;;13.18;5.15;;;6.30;1.00;;;;;;10420430;28;86775;-47
2022/03/13 07:05:33;;;;;;;10.30;4.82;;;6.80;1.00;;;;;;10442487;28;84939;-51
2022/03/13 07:10:34;;;;;;;9.15;4.85;;;7.40;99.90;;;;;;10428602;28;85974;-51
2022/03/13 07:15:35;;;;;;;11.07;4.97;;;8.00;1.00;;;;;;10426147;28;85166;-51
2022/03/13 07:20:35;;;;;;;13.18;5.25;;;8.60;27.20;;;;;;10439406;28;83998;-51
2022/03/13 07:25:36;;;;;;;9.82;4.57;;;8.80;99.90;;;;;;10412999;28;86760;-49
2022/03/13 07:30:37;;;;;;;12.20;4.63;;;9.30;1.00;;;;;;10426039;28;86187;-51
2022/03/13 07:35:37;;;;;;;12.63;5.47;;;9.70;99.90;;;;;;10447687;28;84935;-49
2022/03/13 07:40:38;;;;;;;8.93;4.95;;;9.90;1.00;;;;;;10448869;28;84946;-49
2022/03/13 07:45:41;;;;;;;9.15;4.70;;;9.90;1.00;;;;;;10448239;28;84814;-49
2022/03/13 07:50:42;;;;;;;10.55;4.80;;;10.00;1.00;;;;;;10448654;28;84126;-47
2022/03/13 07:55:42;;;;;;;11.52;5.68;;;10.40;99.90;;;;;;10442300;28;85121;-46
2022/03/13 08:00:45;;;;;;;11.23;5.05;;;10.90;6.30;;;;;;10427381;28;85041;-49
2022/03/13 08:05:46;;;;;;;10.48;5.15;;;11.70;1.00;;;;;;10407931;28;86490;-47
2022/03/13 08:10:47;;;;;;;9.35;5.40;;;12.60;1.00;;;;;;10442936;27;84136;-47
2022/03/13 08:15:47;;;;;;;8.35;4.53;;;13.30;99.90;;;;;;10421735;28;85748;-49
2022/03/13 08:20:48;;;;;;;9.90;5.13;;;13.50;99.90;;;;;;10452282;28;84052;-48
2022/03/13 08:25:49;;;;;;;7.60;5.13;;;14.30;1.00;;;;;;10424046;28;85866;-54
2022/03/13 08:30:49;;;;;;;9.15;4.72;;;14.70;1.00;;;;;;10434644;28;84175;-53
2022/03/13 08:35:50;;;;;;;11.02;4.43;;;15.60;99.90;;;;;;10433179;28;86043;-49
2022/03/13 08:40:51;;;;;;;5.93;4.20;;;15.80;99.90;;;;;;10449426;28;85466;-51
2022/03/13 08:45:52;;;;;;;6.80;4.22;;;15.70;1.00;;;;;;10449321;28;84882;-49
2022/03/13 08:50:53;;;;;;;8.50;4.85;;;15.70;1.00;;;;;;10432028;28;87102;-47
2022/03/13 08:55:54;;;;;;;7.30;4.25;;;16.50;1.00;;;;;;10443042;28;84037;-48
2022/03/13 09:00:56;;;;;;;6.13;4.20;;;16.80;1.00;;;;;;10432342;28;84143;-48
2022/03/13 09:05:56;;;;;;;7.68;4.07;;;17.10;1.00;;;;;;10427790;28;84867;-47
2022/03/13 09:10:58;;;;;;;9.35;4.82;;;17.00;1.00;;;;;;10410171;28;84856;-48
2022/03/13 09:15:58;;;;;;;5.57;4.15;;;16.60;1.00;;;;;;10409852;28;84961;-45
2022/03/13 09:20:59;;;;;;;6.70;4.50;;;16.60;1.00;;;;;;10435261;28;85516;-49
2022/03/13 09:26:00;;;;;;;7.90;4.45;;;16.30;1.00;;;;;;10441932;28;84968;-49
2022/03/13 09:31:01;;;;;;;6.25;4.00;;;17.00;1.00;;;;;;10432347;28;84950;-48
2022/03/13 09:36:02;;;;;;;7.53;4.57;;;17.60;1.00;;;;;;10429878;28;85395;-47
2022/03/13 09:41:03;;;;;;;6.63;4.65;;;17.90;1.00;;;;;;10449520;28;84821;-47
2022/03/13 09:46:10;;;;;;;9.10;4.78;;;18.00;1.00;;;;;;10431672;28;84190;-51
2022/03/13 09:51:11;;;;;;;7.78;4.93;;;18.80;1.00;;;;;;10452533;28;86056;-52
2022/03/13 09:56:12;;;;;;;7.25;4.38;;;19.40;1.00;;;;;;10461161;22;84306;-63
2022/03/13 10:01:13;;;;;;;6.35;4.97;;;19.20;1.00;;;;;;10466939;28;84980;-57
2022/03/13 10:06:13;;;;;;;8.07;4.72;;;19.30;1.00;;;;;;10407174;28;85030;-59
2022/03/13 10:11:15;;;;;;;7.20;4.85;;;18.40;99.90;;;;;;10411393;28;85034;-58
2022/03/13 10:16:19;;;;;;;8.05;4.80;;;18.60;99.90;;;;;;10402818;28;84738;-57
2022/03/13 10:21:19;;;;;;;8.30;5.00;;;18.80;99.90;;;;;;10411978;28;84280;-57
2022/03/13 10:26:30;;;;;;;7.70;5.40;;;18.40;99.90;;;;;;10403953;28;84269;-64
2022/03/13 10:31:31;;;;;;;7.60;5.15;;;18.50;99.90;;;;;;10410300;28;84941;-61
2022/03/13 10:36:34;;;;;;;8.95;5.25;;;19.10;99.90;;;;;;10387650;28;84895;-62
2022/03/13 10:41:43;;;;;;;8.77;5.90;;;20.00;99.90;;;;;;10407120;28;85037;-65
2022/03/13 10:46:52;;;;;;;8.60;5.28;;;19.40;99.90;;;;;;10405532;28;85063;-62
2022/03/13 10:51:56;;;;;;;8.10;5.47;;;19.80;99.90;;;;;;10415154;28;84785;-61
2022/03/13 10:57:05;;;;;;;8.00;5.15;;;19.90;99.90;;;;;;10390514;28;84340;-63
2022/03/13 11:02:14;;;;;;;9.77;5.82;;;19.80;99.90;;;;;;10397635;28;84926;-60
2022/03/13 11:07:15;;;;;;;9.40;5.78;;;19.20;99.90;;;;;;10408104;28;84322;-61
2022/03/13 11:12:26;;;;;;;10.52;6.22;;;19.70;99.90;;;;;;10418881;28;85859;-59
2022/03/13 11:17:33;;;;;;;9.38;5.70;;;19.90;99.90;;;;;;10408029;28;84347;-59
2022/03/13 11:22:35;;;;;;;10.40;6.13;;;19.20;99.90;;;;;;10405180;28;86378;-62
2022/03/13 11:27:39;;;;;;;10.63;6.22;;;19.20;99.90;;;;;;10403131;28;84300;-59
2022/03/13 11:33:02;;;;;;;9.10;6.10;;;20.30;99.90;;;;;;10411496;28;84925;-61
2022/03/13 11:38:15;;;;;;;9.18;5.70;;;21.00;99.90;;;;;;10366820;28;87003;-62
2022/03/13 11:43:21;;;;;;;8.30;6.20;;;21.30;99.90;;;;;;10370381;28;85373;-63
2022/03/13 11:48:22;;;;;;;10.32;6.63;;;21.60;99.90;;;;;;10376746;28;84047;-62
2022/03/13 11:53:25;;;;;;;11.73;6.75;;;21.60;99.90;;;;;;10378746;28;85053;-62
2022/03/13 11:58:47;;;;;;;11.15;7.20;;;22.50;99.90;;;;;;10377765;28;85933;-62
2022/03/13 12:04:07;;;;;;;11.90;6.97;;;22.60;99.90;;;;;;10384448;28;84414;-63
2022/03/13 12:09:18;;;;;;;12.68;7.20;;;22.50;99.90;;;;;;10417689;28;84147;-63
2022/03/13 12:14:20;;;;;;;10.90;7.22;;;22.00;99.90;;;;;;10415640;28;84119;-62
2022/03/13 12:19:20;;;;;;;10.48;7.00;;;22.00;99.90;;;;;;10414864;28;86349;-60
2022/03/13 12:24:21;;;;;;;13.07;7.13;;;22.20;99.90;;;;;;10415243;28;87194;-62
2022/03/13 12:29:23;;;;;;;12.27;7.28;;;22.50;99.90;;;;;;10402465;28;86798;-62
2022/03/13 12:34:28;;;;;;;11.07;7.20;;;22.20;99.90;;;;;;10412942;28;84912;-61
2022/03/13 12:39:30;;;;;;;12.35;7.05;;;22.90;99.90;;;;;;10412791;28;84833;-62
2022/03/13 12:44:32;;;;;;;11.27;7.40;;;23.50;99.90;;;;;;10400802;28;87251;-62
2022/03/13 12:49:37;;;;;;;11.30;7.18;;;23.30;99.90;;;;;;10378999;28;85377;-61
2022/03/13 12:54:40;;;;;;;11.80;7.35;;;23.50;99.90;;;;;;10381279;28;84241;-61
2022/03/13 12:59:42;;;;;;;9.60;6.45;;;24.20;99.90;;;;;;10372472;28;84119;-61
2022/03/13 13:04:51;;;;;;;11.82;7.28;;;23.70;99.90;;;;;;10378243;28;85109;-61
2022/03/13 13:09:52;;;;;;;10.60;6.68;;;23.90;99.90;;;;;;10372410;28;84971;-62
2022/03/13 13:14:53;;;;;;;11.95;6.82;;;23.60;99.90;;;;;;10370655;28;85448;-61
2022/03/13 13:19:56;;;;;;;9.63;6.82;;;23.60;99.90;;;;;;10372374;28;85046;-62
2022/03/13 13:25:11;;;;;;;12.18;7.50;;;24.60;99.90;;;;;;10387265;28;87169;-62
2022/03/13 13:30:30;;;;;;;11.02;7.25;;;23.90;99.90;;;;;;10372539;28;87658;-62
2022/03/13 13:35:46;;;;;;;10.35;6.30;;;23.20;99.90;;;;;;10379073;28;84985;-61
2022/03/13 13:40:56;;;;;;;12.95;7.53;;;22.40;99.90;;;;;;10416293;28;84745;-63
2022/03/13 13:46:17;;;;;;;11.77;7.50;;;22.60;99.90;;;;;;10415083;28;85185;-62
2022/03/13 13:51:30;;;;;;;11.45;7.05;;;22.80;99.90;;;;;;10415341;28;84035;-61
2022/03/13 13:56:40;;;;;;;10.90;7.35;;;22.40;99.90;;;;;;10371625;28;85303;-61
2022/03/13 14:01:46;;;;;;;10.93;6.82;;;22.30;99.90;;;;;;10389036;28;86399;-60
2022/03/13 14:06:47;;;;;;;11.57;6.82;;;21.60;99.90;;;;;;10371931;28;84497;-61
2022/03/13 14:11:49;;;;;;;12.57;7.43;;;20.80;99.90;;;;;;10413890;28;84149;-60
2022/03/13 14:16:50;;;;;;;9.93;6.95;;;20.00;99.90;;;;;;10412007;28;84113;-62
2022/03/13 14:21:51;;;;;;;12.13;6.72;;;19.60;99.90;;;;;;10409937;28;84229;-61
2022/03/13 14:26:52;;;;;;;11.90;6.72;;;19.10;99.90;;;;;;10411878;28;84103;-62
2022/03/13 14:31:53;;;;;;;11.57;7.00;;;18.90;99.90;;;;;;10411818;28;84002;-61
2022/03/13 14:36:58;;;;;;;14.02;7.00;;;19.20;99.90;;;;;;10409374;28;85054;-62
2022/03/13 14:41:59;;;;;;;12.93;7.32;;;19.70;99.90;;;;;;10411544;28;85384;-62
2022/03/13 14:47:00;;;;;;;12.07;7.05;;;20.30;99.90;;;;;;10409937;28;84926;-61
2022/03/13 14:52:01;;;;;;;11.90;6.82;;;20.50;99.90;;;;;;10410594;28;86619;-60
2022/03/13 14:57:03;;;;;;;12.85;6.57;;;21.20;99.90;;;;;;10407430;28;85140;-60
2022/03/13 15:02:04;;;;;;;11.48;6.70;;;21.00;99.90;;;;;;10411263;28;84107;-61
2022/03/13 15:07:04;;;;;;;10.80;6.68;;;20.40;99.90;;;;;;10409540;28;84795;-62
2022/03/13 15:12:07;;;;;;;11.48;6.97;;;20.30;99.90;;;;;;10410236;28;84715;-60
2022/03/13 15:17:08;;;;;;;12.90;7.18;;;20.00;99.90;;;;;;10409049;28;84217;-59
2022/03/13 15:22:08;;;;;;;13.15;6.50;;;19.40;99.90;;;;;;10407710;28;87445;-60
2022/03/13 15:27:10;;;;;;;10.05;5.63;;;19.10;99.90;;;;;;10410070;28;84098;-58
2022/03/13 15:32:10;;;;;;;13.10;6.85;;;18.60;99.90;;;;;;10410772;28;84130;-58
2022/03/13 15:37:13;;;;;;;11.82;6.47;;;18.40;99.90;;;;;;10413755;28;84951;-60
2022/03/13 15:42:14;;;;;;;12.27;6.72;;;18.00;99.90;;;;;;10396366;28;86824;-58
2022/03/13 15:47:15;;;;;;;13.38;6.80;;;17.70;99.90;;;;;;10412682;28;84403;-61
2022/03/13 15:52:16;;;;;;;12.73;6.45;;;17.50;99.90;;;;;;10411841;28;85666;-61
2022/03/13 15:57:17;;;;;;;12.05;6.30;;;17.10;99.90;;;;;;10463703;22;84999;-47
2022/03/13 16:02:18;;;;;;;13.50;6.40;;;17.10;99.90;;;;;;10492308;27;84122;-47
2022/03/13 16:07:19;;;;;;;12.85;7.45;;;17.10;99.90;;;;;;10491591;27;84023;-49
2022/03/13 16:12:26;;;;;;;10.52;6.25;;;17.00;99.90;;;;;;10491642;27;84840;-52
2022/03/13 16:17:28;;;;;;;11.98;6.68;;;16.90;99.90;;;;;;10489215;27;84121;-52
2022/03/13 16:22:28;;;;;;;12.80;6.90;;;16.80;99.90;;;;;;10491013;27;84457;-45
2022/03/13 16:27:29;;;;;;;10.63;6.20;;;16.70;99.90;;;;;;10470967;27;84100;-53
2022/03/13 16:32:30;;;;;;;11.00;6.22;;;16.60;99.90;;;;;;10452924;27;84850;-49
2022/03/13 16:37:31;;;;;;;13.30;6.07;;;16.60;99.90;;;;;;10470910;27;86639;-51
2022/03/13 16:42:32;;;;;;;12.65;6.72;;;16.60;99.90;;;;;;10471995;27;86720;-48
2022/03/13 16:47:36;;;;;;;12.48;6.70;;;16.40;99.90;;;;;;10475097;27;85039;-52
2022/03/13 16:52:37;;;;;;;12.38;7.43;;;16.40;99.90;;;;;;10499097;27;84183;-49
2022/03/13 16:57:37;;;;;;;12.73;6.50;;;16.30;99.90;;;;;;10498267;27;84147;-49
2022/03/13 17:02:38;;;;;;;13.55;6.88;;;16.10;99.90;;;;;;10496204;27;84279;-48
2022/03/13 17:07:38;;;;;;;11.80;7.07;;;16.10;99.90;;;;;;10495944;27;84048;-48
2022/03/13 17:12:40;;;;;;;10.20;5.75;;;15.90;99.90;;;;;;10497587;27;85101;-49
2022/03/13 17:17:41;;;;;;;9.82;5.68;;;15.70;99.90;;;;;;10494923;27;86091;-48
2022/03/13 17:22:43;;;;;;;9.48;5.80;;;15.40;99.90;;;;;;10495428;27;84241;-46
2022/03/13 17:27:44;;;;;;;10.90;5.85;;;15.30;99.90;;;;;;10495977;27;85001;-46
2022/03/13 17:32:44;;;;;;;9.95;5.55;;;15.10;99.90;;;;;;10497041;27;85217;-48
2022/03/13 17:37:46;;;;;;;9.98;5.70;;;14.90;99.90;;;;;;10493977;27;84886;-51
2022/03/13 17:42:47;;;;;;;10.80;5.43;;;14.70;99.90;;;;;;10497326;27;84829;-47
2022/03/13 17:47:52;;;;;;;11.73;6.28;;;14.70;99.90;;;;;;10495255;27;84239;-49
2022/03/13 17:52:53;;;;;;;10.57;6.20;;;14.50;99.90;;;;;;10485900;27;84814;-49
2022/03/13 17:57:55;;;;;;;12.07;6.18;;;14.40;99.90;;;;;;10452247;27;84955;-46
2022/03/13 18:02:55;;;;;;;9.73;6.20;;;14.30;99.90;;;;;;10453365;28;84042;-48
2022/03/13 18:07:56;;;;;;;9.77;5.47;;;14.10;99.90;;;;;;10453289;27;85251;-47
2022/03/13 18:12:57;;;;;;;10.20;5.50;;;14.10;99.90;;;;;;10455002;27;84278;-52
2022/03/13 18:17:57;;;;;;;10.13;6.20;;;14.00;99.90;;;;;;10451514;28;86065;-48
2022/03/13 18:22:58;;;;;;;8.68;5.72;;;13.90;99.90;;;;;;10451441;28;86692;-50
2022/03/13 18:27:58;;;;;;;9.65;5.65;;;13.70;99.90;;;;;;10480924;27;84836;-45
2022/03/13 18:32:59;;;;;;;12.48;6.53;;;13.60;99.90;;;;;;10493445;27;85026;-44
2022/03/13 18:38:02;;;;;;;9.55;6.30;;;13.50;99.90;;;;;;10494281;27;84367;-48
2022/03/13 18:43:05;;;;;;;9.43;5.47;;;13.40;99.90;;;;;;10494788;27;84125;-47
2022/03/13 18:48:07;;;;;;;12.18;6.03;;;13.30;99.90;;;;;;10469430;27;84778;-50
2022/03/13 18:53:08;;;;;;;10.15;6.20;;;13.20;99.90;;;;;;10454415;27;84059;-45
2022/03/13 18:58:09;;;;;;;14.30;6.28;;;13.00;99.90;;;;;;10450011;27;85035;-48
2022/03/13 19:03:09;;;;;;;10.63;5.93;;;13.00;99.90;;;;;;10453715;27;84553;-51
2022/03/13 19:08:11;;;;;;;9.60;5.65;;;12.90;99.90;;;;;;10466561;27;85959;-48
2022/03/13 19:13:12;;;;;;;13.05;6.30;;;12.80;99.90;;;;;;10451583;27;85053;-47
2022/03/13 19:18:13;;;;;;;10.35;6.32;;;12.70;99.90;;;;;;10449855;27;84810;-48
2022/03/13 19:23:15;;;;;;;12.40;6.18;;;12.70;99.90;;;;;;10510008;27;84747;-47
2022/03/13 19:28:16;;;;;;;14.13;6.63;;;12.60;99.90;;;;;;10493351;27;84901;-47
2022/03/13 19:33:17;;;;;;;12.57;6.47;;;12.50;99.90;;;;;;10494806;27;84910;-46
2022/03/13 19:38:18;;;;;;;15.35;6.65;;;12.50;99.90;;;;;;10459950;27;84828;-48
2022/03/13 19:43:19;;;;;;;11.02;6.75;;;12.40;99.90;;;;;;10452021;28;84163;-50
2022/03/13 19:48:20;;;;;;;13.23;5.90;;;12.30;99.90;;;;;;10467754;27;84216;-47
2022/03/13 19:53:20;;;;;;;9.80;5.78;;;12.10;1.00;;;;;;10473432;27;84083;-48
2022/03/13 19:58:21;;;;;;;12.95;6.45;;;12.10;1.00;;;;;;10490655;27;84254;-46
2022/03/13 20:03:22;;;;;;;13.27;7.15;;;12.00;1.00;;;;;;10494353;27;84403;-50
2022/03/13 20:08:22;;;;;;;14.07;7.32;;;12.00;1.00;;;;;;10495441;27;86139;-47
2022/03/13 20:13:24;;;;;;;14.70;6.78;;;11.90;1.00;;;;;;10501708;27;84166;-49
2022/03/13 20:18:26;;;;;;;14.18;7.25;;;11.80;1.00;;;;;;10499634;27;84349;-47
2022/03/13 20:23:27;;;;;;;13.63;7.03;;;11.70;1.00;;;;;;10500178;27;84049;-49
2022/03/13 20:28:28;;;;;;;13.25;6.85;;;11.70;1.00;;;;;;10456735;27;86960;-49
2022/03/13 20:33:30;;;;;;;15.98;7.22;;;11.70;1.00;;;;;;10458218;27;84815;-53
2022/03/13 20:38:32;;;;;;;13.50;6.82;;;11.70;1.00;;;;;;10457048;27;85150;-47
2022/03/13 20:43:34;;;;;;;11.30;6.57;;;11.70;99.90;;;;;;10457538;27;84082;-47
2022/03/13 20:48:35;;;;;;;11.38;6.55;;;11.70;99.90;;;;;;10481237;27;85103;-49
2022/03/13 20:53:36;;;;;;;15.13;6.82;;;11.70;99.90;;;;;;10498123;27;84907;-44
2022/03/13 20:58:37;;;;;;;15.18;7.32;;;11.70;1.00;;;;;;10496658;27;86001;-48
2022/03/13 21:03:38;;;;;;;11.52;6.95;;;11.60;1.00;;;;;;10491912;27;84929;-53
2022/03/13 21:08:40;;;;;;;18.23;7.60;;;11.60;1.00;;;;;;10496187;27;84715;-46
2022/03/13 21:13:41;;;;;;;15.43;7.60;;;11.60;1.00;;;;;;10497191;27;85006;-47
2022/03/13 21:18:42;;;;;;;15.50;7.50;;;11.60;26.20;;;;;;10493707;27;84133;-50
2022/03/13 21:23:44;;;;;;;13.25;6.97;;;11.60;99.90;;;;;;10456757;27;84163;-51
2022/03/13 21:28:51;;;;;;;14.45;7.72;;;11.70;99.90;;;;;;10454957;27;84842;-46
2022/03/13 21:33:51;;;;;;;13.65;7.10;;;11.80;99.90;;;;;;10455736;27;84931;-51
2022/03/13 21:38:52;;;;;;;14.60;7.25;;;11.90;99.90;;;;;;10455481;27;84102;-47
2022/03/13 21:43:53;;;;;;;15.68;7.60;;;11.90;99.90;;;;;;10455698;28;85007;-47
2022/03/13 21:48:53;;;;;;;11.27;6.82;;;11.90;99.90;;;;;;10453698;28;84778;-46
2022/03/13 21:53:54;;;;;;;13.95;8.23;;;11.80;84.00;;;;;;10455863;27;85741;-48
2022/03/13 21:58:55;;;;;;;13.70;7.65;;;11.80;99.90;;;;;;10439222;22;84566;-57
2022/03/13 22:03:56;;;;;;;14.57;7.22;;;11.70;99.90;;;;;;10397280;28;85446;-58
2022/03/13 22:08:57;;;;;;;15.32;7.97;;;11.60;99.90;;;;;;10415559;28;84146;-56
2022/03/13 22:13:58;;;;;;;16.05;7.78;;;11.50;99.90;;;;;;10413528;28;86056;-59
2022/03/13 22:18:58;;;;;;;18.27;8.52;;;11.50;99.90;;;;;;10383226;28;86861;-59
2022/03/13 22:24:00;;;;;;;14.52;7.75;;;11.50;99.90;;;;;;10413775;28;84085;-59
2022/03/13 22:29:01;;;;;;;15.65;7.82;;;11.60;99.90;;;;;;10412434;28;85733;-60
2022/03/13 22:34:02;;;;;;;17.17;8.35;;;11.50;99.90;;;;;;10396542;28;84913;-57
2022/03/13 22:39:03;;;;;;;15.93;7.47;;;11.50;99.90;;;;;;10393383;28;86904;-55
2022/03/13 22:44:04;;;;;;;14.68;7.35;;;11.40;1.00;;;;;;10412284;28;85934;-61
2022/03/13 22:49:05;;;;;;;17.25;7.70;;;11.40;1.00;;;;;;10410396;28;84981;-58
2022/03/13 22:54:06;;;;;;;16.17;9.35;;;11.40;1.00;;;;;;10410701;28;85721;-59
2022/03/13 22:59:07;;;;;;;18.25;8.50;;;11.30;1.00;;;;;;10391331;28;85415;-57
2022/03/13 23:04:08;;;;;;;15.07;7.32;;;11.20;1.00;;;;;;10410728;28;84916;-60
2022/03/13 23:09:08;;;;;;;14.70;7.78;;;11.20;1.00;;;;;;10409593;28;84938;-59
2022/03/13 23:14:09;;;;;;;18.83;8.55;;;11.20;1.00;;;;;;10408932;28;84935;-58
2022/03/13 23:19:13;;;;;;;16.63;8.05;;;11.20;1.00;;;;;;10408788;28;84132;-60
2022/03/13 23:24:17;;;;;;;15.23;7.65;;;11.10;1.00;;;;;;10411834;28;84193;-60
2022/03/13 23:29:19;;;;;;;17.75;8.60;;;11.10;1.00;;;;;;10406697;28;87151;-60
2022/03/13 23:34:21;;;;;;;14.65;7.78;;;11.00;1.00;;;;;;10391418;28;84090;-59
2022/03/13 23:39:22;;;;;;;15.07;8.30;;;11.00;1.00;;;;;;10409014;28;84999;-60
2022/03/13 23:44:23;;;;;;;17.17;8.38;;;10.90;1.00;;;;;;10407859;28;84102;-58
2022/03/13 23:49:25;;;;;;;14.48;8.35;;;10.90;99.90;;;;;;10389538;28;84294;-60
2022/03/13 23:54:29;;;;;;;17.55;9.05;;;10.90;99.90;;;;;;10407501;28;87305;-58
2022/03/13 23:59:29;;;;;;;18.20;8.60;;;10.90;99.90;;;;;;10407549;28;84103;-58
